• Join FlightAware (Why Join?)
  • Login
  • US Flag 
05:09AM EST


 

Airport Tracker/Info


-or-


 

Live Flight TrackerFlight Track Log ✈ DAL3970 ✈ 18-Apr-2013 ✈ KCWA - KDTW

Flight Track Log - Related Links

Times and Time Zones

All times are in EDT time to prevent confusion due to time zone crossing. See the DAL3970 flight status page for this flight to view local times or setup timezone preferences in your user account.

Time Position Orientation Groundspeed Altitude Reporting Facility
EDT Latitude Longitude Course Direction KTS MPH feet Rate Location/Type
08:40AM 44.7800 -89.5800 90° East 198 228 3,500  Level Minneapolis Center
08:41AM 44.7783 -89.4839 91° East 235 270 5,100 1,920 Climbing Minneapolis Center
08:42AM 44.7667 -89.1192 90° East  Level FlightAware Approximate
08:42AM 44.7758 -89.3758 92° East 284 327 7,500  Level Minneapolis Center
08:43AM 44.7667 -88.9823 90° East  Level FlightAware Approximate
08:43AM 44.7758 -89.2542 90° East 300 345 10,200  Level Minneapolis Center
08:44AM 44.7637 -88.8459 101° East  Level FlightAware Approximate
08:44AM 44.7747 -89.1242 91° East 319 367 11,800  Level Minneapolis Center
08:45AM 44.7501 -88.7022 90° East  Level FlightAware Approximate
08:45AM 44.7717 -89.0036 92° East 341 392 13,000  Level Minneapolis Center
08:46AM 44.7689 -88.8383 91° East 361 415 14,300 1,200 Climbing Minneapolis Center
08:47AM 44.7667 -88.6872 91° East 378 435 15,500 1,320 Climbing Minneapolis Center
08:48AM 44.7642 -88.5328 91° East 388 447 17,000 1,320 Climbing Minneapolis Center
08:49AM 44.7619 -88.3822 91° East 387 445 18,300 960 Climbing Minneapolis Center
08:50AM 44.7586 -88.2261 92° East 396 456 19,000 660 Climbing Minneapolis Center
08:51AM 44.7547 -88.0606 92° East 413 475 19,700 780 Climbing Minneapolis Center
08:52AM 44.7506 -87.8983 92° East 417 480 20,600 960 Climbing Minneapolis Center
08:53AM 44.7481 -87.7378 91° East 413 475 21,700 1,020 Climbing Minneapolis Center
08:54AM 44.7419 -87.5792 93° East 409 471 22,800 600 Climbing Minneapolis Center
08:55AM 44.7369 -87.4175 92° East 414 476 23,000 60 Climbing Minneapolis Center
08:56AM 44.7311 -87.2125 92° East 437 503 23,000  Level Minneapolis Center
08:57AM 44.7250 -87.0358 93° East 451 519 23,000  Level Minneapolis Center
08:58AM 44.7189 -86.8561 93° East 459 528 23,000  Level Minneapolis Center
08:59AM 44.6625 -86.7008 117° Southeast 447 514 23,000  Level Minneapolis Center
09:00AM 44.6014 -86.5492 119° Southeast 448 516 23,000  Level Minneapolis Center
09:01AM 44.5386 -86.3986 120° Southeast 452 520 23,000  Level Minneapolis Center
09:02AM 44.4758 -86.2497 121° Southeast 451 519 23,000  Level Minneapolis Center
09:03AM 44.4008 -86.0694 120° Southeast 452 520 23,000  Level Minneapolis Center
09:04AM 44.3378 -85.9197 120° Southeast 451 519 23,000  Level Minneapolis Center
09:05AM 44.2744 -85.7708 121° Southeast 450 518 23,000  Level Minneapolis Center
09:06AM 44.2108 -85.6214 121° Southeast 451 519 23,000  Level Minneapolis Center
09:07AM 44.1464 -85.4697 121° Southeast 455 524 23,000  Level Minneapolis Center
09:08AM 44.0822 -85.3214 121° Southeast 452 520 23,000  Level Minneapolis Center
09:09AM 44.0194 -85.1775 121° Southeast 450 518 23,000  Level Minneapolis Center
09:10AM 43.9428 -85.0017 121° Southeast 446 513 23,000  Level Minneapolis Center
09:11AM 43.8794 -84.8561 121° Southeast 444 511 23,000 -120 Level Minneapolis Center
09:12AM 43.8147 -84.7094 121° Southeast 444 511 22,800 -960 Descending Minneapolis Center
09:13AM 43.7525 -84.5686 121° Southeast 440 506 21,100 -1,620 Descending Minneapolis Center
09:14AM 43.6797 -84.4614 133° Southeast 405 466 19,500 -1,680 Descending Minneapolis Center
09:15AM 43.5956 -84.3892 148° Southeast 375 432 17,700 -1,440 Descending Minneapolis Center
09:16AM 43.5331 -84.3344 148° Southeast 352 405 17,000 -420 Descending Cleveland Center
09:17AM 43.4417 -84.2575 149° Southeast 352 405 17,000  Level Cleveland Center
09:18AM 43.3628 -84.1869 147° Southeast 352 405 17,000  Level Cleveland Center
09:19AM 43.2794 -84.1136 147° Southeast 357 411 17,000 -60 Level Cleveland Center
09:20AM 43.2000 -84.0494 150° Southeast 357 411 16,900 -480 Descending Cleveland Center
09:21AM 43.1169 -83.9764 147° Southeast 357 411 16,100 -1,080 Descending Cleveland Center
09:22AM 43.0356 -83.9067 148° Southeast 357 411 14,800 -1,440 Descending Cleveland Center
09:23AM 42.9806 -83.8611 149° Southeast 332 382 13,900 -1,440 Descending Cleveland Center
09:23AM 42.9561 -83.8400 148° Southeast 352 405 13,400 -1,320 Descending Cleveland Center
09:24AM 42.8747 -83.7706 148° Southeast 314 361 12,100 -840 Descending Cleveland Center
09:25AM 42.8133 -83.7250 151° Southeast 255 293 11,900 -1,140 Descending Cleveland Center
09:26AM 42.7503 -83.6681 146° Southeast 280 322 10,000 -1,380 Descending Cleveland Center
09:27AM 42.6994 -83.6147 142° Southeast 272 313 9,100 -1,020 Descending Cleveland Center
09:28AM 42.6328 -83.5408 141° Southeast 269 310 8,000 -1,380 Descending Cleveland Center
09:29AM 42.5739 -83.4789 142° Southeast 280 322 6,500 -960 Descending Cleveland Center
09:30AM 42.5150 -83.4114 140° Southeast 272 313 6,100 -780 Descending Cleveland Center
09:31AM 42.4519 -83.3439 142° Southeast 272 313 5,000 -1,200 Descending Cleveland Center
09:31AM 42.4378 -83.3319 148° Southeast 265 305 4,600 -1,020 Descending Cleveland Center
09:32AM 42.3883 -83.3017 156° South 261 300 4,000 -1,020 Descending Cleveland Center
09:32AM 42.3717 -83.3011 179° South 225 259 3,600 -960 Descending Cleveland Center
09:33AM 42.3239 -83.3017 180° South 164 189 2,900 -780 Descending Cleveland Center